Time;durP1;ratioP1;P1;durP2;ratioP2;P2;SDS_P1;SDS_P2;PMS_P1;PMS_P2;Temp;Humidity;BMP_temperature;BMP_pressure;BME280_temperature;BME280_humidity;BME280_pressure;Samples;Min_cycle;Max_cycle;Signal;HPM_P1;HPM_P2
2022/01/02 00:01:07;;;;;;;47.80;27.13;;;;;;;;;;5095506;28;20031;-68
2022/01/02 00:03:35;;;;;;;50.95;28.38;;;;;;;;;;5095231;28;20087;-68
2022/01/02 00:06:03;;;;;;;45.03;27.17;;;;;;;;;;5113482;28;20566;-69
2022/01/02 00:08:31;;;;;;;49.42;27.35;;;;;;;;;;5113424;28;20472;-69
2022/01/02 00:10:59;;;;;;;49.05;27.67;;;;;;;;;;5113564;28;20036;-70
2022/01/02 00:13:30;;;;;;;50.85;27.85;;;;;;;;;;5113425;28;20016;-70
2022/01/02 00:16:03;;;;;;;45.25;26.48;;;;;;;;;;5095203;28;20081;-68
2022/01/02 00:18:31;;;;;;;46.72;26.90;;;;;;;;;;5094762;28;20122;-70
2022/01/02 00:21:00;;;;;;;47.92;27.92;;;;;;;;;;5113389;28;20062;-72
2022/01/02 00:23:31;;;;;;;49.05;28.13;;;;;;;;;;5113285;28;20027;-70
2022/01/02 00:26:03;;;;;;;43.47;26.80;;;;;;;;;;5113388;28;20053;-70
2022/01/02 00:28:29;;;;;;;48.75;27.30;;;;;;;;;;5094943;28;20387;-70
2022/01/02 00:30:56;;;;;;;47.75;28.35;;;;;;;;;;5094966;28;20028;-69
2022/01/02 00:33:22;;;;;;;46.28;27.55;;;;;;;;;;5113220;28;20077;-69
2022/01/02 00:35:49;;;;;;;52.05;28.38;;;;;;;;;;5113241;28;20020;-69
2022/01/02 00:38:22;;;;;;;45.35;27.33;;;;;;;;;;5094901;28;20032;-71
2022/01/02 00:40:50;;;;;;;49.28;27.30;;;;;;;;;;5113165;28;20468;-70
2022/01/02 00:43:21;;;;;;;60.65;30.15;;;;;;;;;;5094592;28;20035;-69
2022/01/02 00:45:50;;;;;;;51.95;27.45;;;;;;;;;;5094823;28;20460;-70
2022/01/02 00:48:32;;;;;;;53.90;29.17;;;;;;;;;;5112989;28;20119;-70
2022/01/02 00:51:02;;;;;;;52.15;28.52;;;;;;;;;;5113076;28;20039;-70
2022/01/02 00:53:33;;;;;;;51.92;27.38;;;;;;;;;;5113583;28;20119;-70
2022/01/02 00:56:00;;;;;;;47.70;27.33;;;;;;;;;;5115664;28;20073;-69
2022/01/02 00:58:31;;;;;;;55.35;28.90;;;;;;;;;;5098543;28;20122;-71
2022/01/02 01:00:59;;;;;;;53.92;27.95;;;;;;;;;;5098647;28;20032;-71
2022/01/02 01:03:27;;;;;;;50.90;29.55;;;;;;;;;;5116765;28;20108;-70
2022/01/02 01:05:55;;;;;;;48.22;27.85;;;;;;;;;;5098447;28;20102;-70
2022/01/02 01:08:23;;;;;;;50.17;27.55;;;;;;;;;;5116510;28;20346;-70
2022/01/02 01:10:50;;;;;;;47.90;27.25;;;;;;;;;;5098324;28;20110;-69
2022/01/02 01:13:17;;;;;;;52.13;27.50;;;;;;;;;;5116267;28;20380;-69
2022/01/02 01:15:43;;;;;;;47.92;28.23;;;;;;;;;;5116245;28;20106;-70
2022/01/02 01:18:09;;;;;;;43.67;26.33;;;;;;;;;;5116560;28;20472;-70
2022/01/02 01:20:41;;;;;;;43.00;25.77;;;;;;;;;;5097965;28;20059;-69
2022/01/02 01:23:17;;;;;;;41.92;26.58;;;;;;;;;;5116506;28;20019;-70
2022/01/02 01:25:45;;;;;;;49.33;27.83;;;;;;;;;;5116453;28;20022;-70
2022/01/02 01:28:12;;;;;;;42.97;26.25;;;;;;;;;;5097938;28;20435;-69
2022/01/02 01:30:38;;;;;;;46.45;28.10;;;;;;;;;;5097983;28;20024;-70
2022/01/02 01:33:05;;;;;;;45.85;27.30;;;;;;;;;;5116242;28;20110;-70
2022/01/02 01:35:31;;;;;;;46.83;26.63;;;;;;;;;;5116253;28;20020;-69
2022/01/02 01:37:58;;;;;;;43.63;26.20;;;;;;;;;;5116165;28;20026;-70
2022/01/02 01:40:24;;;;;;;49.47;26.88;;;;;;;;;;5116121;28;20049;-70
2022/01/02 01:43:02;;;;;;;44.08;25.98;;;;;;;;;;5116121;28;20395;-70
2022/01/02 01:45:28;;;;;;;42.47;26.15;;;;;;;;;;5116006;28;20464;-68
2022/01/02 01:47:55;;;;;;;47.00;25.13;;;;;;;;;;5115952;28;20055;-70
2022/01/02 01:50:22;;;;;;;50.47;27.27;;;;;;;;;;5115985;28;20364;-70
2022/01/02 01:52:48;;;;;;;46.08;26.40;;;;;;;;;;5115852;28;20028;-70
2022/01/02 01:55:16;;;;;;;47.45;26.25;;;;;;;;;;5097438;28;20110;-70
2022/01/02 01:57:42;;;;;;;45.25;26.92;;;;;;;;;;5115795;28;20066;-70
2022/01/02 02:00:11;;;;;;;46.47;25.88;;;;;;;;;;5116008;28;20416;-69
2022/01/02 02:02:37;;;;;;;44.47;25.85;;;;;;;;;;5115695;28;20032;-72
2022/01/02 02:05:04;;;;;;;45.30;24.98;;;;;;;;;;5097275;28;20020;-73
2022/01/02 02:07:38;;;;;;;46.70;26.02;;;;;;;;;;5115221;28;20106;-71
2022/01/02 02:12:31;;;;;;;43.50;25.17;;;;;;;;;;5115534;28;20529;-70
2022/01/02 02:14:57;;;;;;;43.15;24.42;;;;;;;;;;5115452;28;20084;-70
2022/01/02 02:17:24;;;;;;;53.75;27.48;;;;;;;;;;5115136;28;20059;-71
2022/01/02 02:19:56;;;;;;;46.58;24.88;;;;;;;;;;5096377;28;20071;-71
2022/01/02 02:22:24;;;;;;;45.83;24.50;;;;;;;;;;5115365;28;20107;-72
2022/01/02 02:24:51;;;;;;;42.78;23.85;;;;;;;;;;5115233;28;20102;-72
2022/01/02 02:27:23;;;;;;;48.80;25.70;;;;;;;;;;5115207;28;20113;-71
2022/01/02 02:29:49;;;;;;;40.50;22.25;;;;;;;;;;5096797;28;20032;-72
2022/01/02 02:32:15;;;;;;;40.53;23.98;;;;;;;;;;5115098;28;20023;-71
2022/01/02 02:34:44;;;;;;;45.30;25.00;;;;;;;;;;5096741;28;20035;-70
2022/01/02 02:37:10;;;;;;;44.63;26.48;;;;;;;;;;5115017;28;20119;-70
2022/01/02 02:39:39;;;;;;;38.92;24.95;;;;;;;;;;5114977;28;20114;-72
2022/01/02 02:42:13;;;;;;;42.60;25.00;;;;;;;;;;5096585;28;20115;-71
2022/01/02 02:44:40;;;;;;;37.72;23.33;;;;;;;;;;5114902;28;20434;-71
2022/01/02 02:49:51;;;;;;;38.25;22.58;;;;;;;;;;5114496;28;20533;-68
2022/01/02 02:52:36;;;;;;;39.22;22.90;;;;;;;;;;5114698;28;20027;-69
2022/01/02 02:55:02;;;;;;;35.08;21.42;;;;;;;;;;5114668;28;20050;-69
2022/01/02 02:57:31;;;;;;;29.88;19.50;;;;;;;;;;5096304;28;20114;-69
2022/01/02 02:59:57;;;;;;;35.40;20.17;;;;;;;;;;5114511;28;20501;-69
2022/01/02 03:02:24;;;;;;;32.20;19.48;;;;;;;;;;5114531;28;20104;-71
2022/01/02 03:04:50;;;;;;;33.38;20.13;;;;;;;;;;5114398;28;20546;-70
2022/01/02 03:07:16;;;;;;;34.95;19.95;;;;;;;;;;5114154;28;20024;-70
2022/01/02 03:09:48;;;;;;;33.88;20.83;;;;;;;;;;5114240;28;20118;-70
2022/01/02 03:12:14;;;;;;;34.03;19.30;;;;;;;;;;5096057;28;20019;-71
2022/01/02 03:14:40;;;;;;;28.73;18.73;;;;;;;;;;5114053;28;20019;-71
2022/01/02 03:17:07;;;;;;;29.48;18.55;;;;;;;;;;5095638;28;20020;-70
2022/01/02 03:19:34;;;;;;;38.38;19.67;;;;;;;;;;5113619;28;20093;-69
2022/01/02 03:22:00;;;;;;;32.33;17.90;;;;;;;;;;5114162;28;20027;-70
2022/01/02 03:24:26;;;;;;;31.15;17.88;;;;;;;;;;5114081;28;20023;-71
2022/01/02 03:26:53;;;;;;;29.23;17.17;;;;;;;;;;5095686;28;20019;-71
2022/01/02 03:29:19;;;;;;;31.25;17.80;;;;;;;;;;5113937;28;20054;-71
2022/01/02 03:31:45;;;;;;;29.95;17.92;;;;;;;;;;5095675;28;20028;-70
2022/01/02 03:34:11;;;;;;;28.70;17.73;;;;;;;;;;5095649;28;20027;-71
2022/01/02 03:36:37;;;;;;;29.80;17.55;;;;;;;;;;5095653;28;20118;-72
2022/01/02 03:39:04;;;;;;;27.85;16.63;;;;;;;;;;5095577;28;20031;-71
2022/01/02 03:41:30;;;;;;;28.52;17.45;;;;;;;;;;5113834;28;20034;-70
2022/01/02 03:43:56;;;;;;;31.80;17.70;;;;;;;;;;5113799;28;20028;-72
2022/01/02 03:46:22;;;;;;;37.28;21.23;;;;;;;;;;5113783;28;20028;-71
2022/01/02 03:48:48;;;;;;;31.15;18.30;;;;;;;;;;5113671;28;20043;-71
2022/01/02 03:51:15;;;;;;;37.45;19.88;;;;;;;;;;5095404;28;20383;-70
2022/01/02 03:53:41;;;;;;;30.25;17.23;;;;;;;;;;5095093;28;20060;-72
2022/01/02 03:56:07;;;;;;;33.38;20.60;;;;;;;;;;5095304;28;20605;-71
2022/01/02 03:58:33;;;;;;;36.47;18.95;;;;;;;;;;5095362;28;20027;-71
2022/01/02 04:00:59;;;;;;;29.92;18.83;;;;;;;;;;5113847;28;20483;-70
2022/01/02 04:03:26;;;;;;;30.90;19.13;;;;;;;;;;5095299;28;20034;-71
2022/01/02 04:05:52;;;;;;;51.15;31.35;;;;;;;;;;5113363;28;20038;-71
2022/01/02 04:08:18;;;;;;;30.75;18.38;;;;;;;;;;5113429;28;20114;-70
2022/01/02 04:10:44;;;;;;;28.05;17.00;;;;;;;;;;5113490;28;20111;-71
2022/01/02 04:13:10;;;;;;;27.33;15.82;;;;;;;;;;5113451;28;20106;-71
2022/01/02 04:15:37;;;;;;;32.67;19.42;;;;;;;;;;5113426;28;20048;-71
2022/01/02 04:18:03;;;;;;;32.67;18.63;;;;;;;;;;5113438;28;20043;-71
2022/01/02 04:20:29;;;;;;;32.00;19.73;;;;;;;;;;5112928;28;20131;-70
2022/01/02 04:22:55;;;;;;;36.80;19.52;;;;;;;;;;5095145;28;20514;-71
2022/01/02 04:25:21;;;;;;;27.50;17.42;;;;;;;;;;5113342;28;20464;-71
2022/01/02 04:27:48;;;;;;;24.25;14.35;;;;;;;;;;5094968;28;20379;-72
2022/01/02 04:30:14;;;;;;;30.60;17.60;;;;;;;;;;5114829;28;20115;-70
2022/01/02 04:32:41;;;;;;;26.52;16.40;;;;;;;;;;5117455;28;20067;-71
2022/01/02 04:35:08;;;;;;;28.25;17.48;;;;;;;;;;5117385;28;20030;-71
2022/01/02 04:37:34;;;;;;;23.63;15.02;;;;;;;;;;5117351;28;20030;-71
2022/01/02 04:40:00;;;;;;;24.90;15.05;;;;;;;;;;5098938;28;20034;-71
2022/01/02 04:42:27;;;;;;;25.52;15.15;;;;;;;;;;5098865;28;20063;-72
2022/01/02 04:44:53;;;;;;;28.27;17.20;;;;;;;;;;5117206;28;20023;-72
2022/01/02 04:47:19;;;;;;;24.77;15.82;;;;;;;;;;5117162;28;20105;-71
2022/01/02 04:49:45;;;;;;;21.35;14.27;;;;;;;;;;5098674;28;20036;-70
2022/01/02 04:52:12;;;;;;;22.73;14.90;;;;;;;;;;5117055;28;20028;-70
2022/01/02 04:54:38;;;;;;;25.33;14.20;;;;;;;;;;5117076;28;20019;-70
2022/01/02 04:57:04;;;;;;;21.67;13.85;;;;;;;;;;5098704;28;20030;-70
2022/01/02 04:59:30;;;;;;;33.30;16.27;;;;;;;;;;5117153;28;20074;-71
2022/01/02 05:01:56;;;;;;;24.17;14.82;;;;;;;;;;5116887;28;20479;-72
2022/01/02 05:04:23;;;;;;;25.05;14.85;;;;;;;;;;5098484;28;20465;-70
2022/01/02 05:06:49;;;;;;;23.60;15.70;;;;;;;;;;5116474;28;20392;-70
2022/01/02 05:09:15;;;;;;;26.48;15.73;;;;;;;;;;5116816;28;20057;-70
2022/01/02 05:11:42;;;;;;;25.42;15.35;;;;;;;;;;5116723;28;20057;-72
2022/01/02 05:14:08;;;;;;;28.10;16.58;;;;;;;;;;5098363;28;20039;-71
2022/01/02 05:16:34;;;;;;;25.27;15.65;;;;;;;;;;5116582;28;20512;-72
2022/01/02 05:19:00;;;;;;;38.28;22.10;;;;;;;;;;5116401;28;20154;-72
2022/01/02 05:21:27;;;;;;;49.10;26.90;;;;;;;;;;5116601;28;20094;-71
2022/01/02 05:23:53;;;;;;;41.63;23.00;;;;;;;;;;5116486;28;20055;-71
2022/01/02 05:26:19;;;;;;;47.88;27.45;;;;;;;;;;5116055;28;20024;-72
2022/01/02 05:28:46;;;;;;;29.50;16.08;;;;;;;;;;5116406;28;20433;-71
2022/01/02 05:31:12;;;;;;;25.40;15.57;;;;;;;;;;5116581;28;20023;-70
2022/01/02 05:33:38;;;;;;;32.03;16.08;;;;;;;;;;5116524;28;20070;-71
2022/01/02 05:36:04;;;;;;;60.95;33.22;;;;;;;;;;5097888;28;20170;-71
2022/01/02 05:38:30;;;;;;;37.28;22.33;;;;;;;;;;5116503;28;20110;-72
2022/01/02 05:40:57;;;;;;;36.03;21.77;;;;;;;;;;5115668;28;20034;-71
2022/01/02 05:43:23;;;;;;;33.92;19.52;;;;;;;;;;5116083;28;20032;-70
2022/01/02 05:45:50;;;;;;;33.13;20.25;;;;;;;;;;5116070;28;20016;-71
2022/01/02 05:48:16;;;;;;;30.95;19.95;;;;;;;;;;5097572;28;20031;-72
2022/01/02 05:50:42;;;;;;;34.42;20.58;;;;;;;;;;5115951;28;20046;-72
2022/01/02 05:53:08;;;;;;;35.22;19.50;;;;;;;;;;5115905;28;20072;-71
2022/01/02 05:55:34;;;;;;;30.38;19.17;;;;;;;;;;5116114;28;20023;-73
2022/01/02 05:58:01;;;;;;;35.50;21.55;;;;;;;;;;5115811;28;20027;-69
2022/01/02 06:00:27;;;;;;;38.55;21.10;;;;;;;;;;5116005;28;20047;-71
2022/01/02 06:02:53;;;;;;;30.55;19.75;;;;;;;;;;5115711;28;20035;-71
2022/01/02 06:05:19;;;;;;;29.30;19.17;;;;;;;;;;5115439;28;20028;-72
2022/01/02 06:07:45;;;;;;;29.88;18.27;;;;;;;;;;5115700;28;20027;-71
2022/01/02 06:10:12;;;;;;;31.20;19.40;;;;;;;;;;5115456;28;20046;-70
2022/01/02 06:12:38;;;;;;;31.10;18.80;;;;;;;;;;5097130;28;20464;-71
2022/01/02 06:15:06;;;;;;;35.75;18.42;;;;;;;;;;5097151;28;20059;-71
2022/01/02 06:17:32;;;;;;;30.15;19.52;;;;;;;;;;5097085;28;20456;-71
2022/01/02 06:19:58;;;;;;;37.53;21.27;;;;;;;;;;5115303;28;20563;-70
2022/01/02 06:22:25;;;;;;;45.00;22.95;;;;;;;;;;5115342;28;20027;-72
2022/01/02 06:24:51;;;;;;;43.03;25.52;;;;;;;;;;5114973;28;20388;-69
2022/01/02 06:27:19;;;;;;;89.53;46.58;;;;;;;;;;5115143;28;20180;-71
2022/01/02 06:29:46;;;;;;;36.35;22.13;;;;;;;;;;5115150;28;20043;-70
2022/01/02 06:32:12;;;;;;;30.13;18.92;;;;;;;;;;5115135;28;20115;-67
2022/01/02 06:34:38;;;;;;;52.92;29.63;;;;;;;;;;5096761;28;20375;-70
2022/01/02 06:37:04;;;;;;;56.70;32.92;;;;;;;;;;5113761;28;20110;-69
2022/01/02 06:39:30;;;;;;;43.70;25.42;;;;;;;;;;5095290;28;20034;-68
2022/01/02 06:41:56;;;;;;;47.22;26.08;;;;;;;;;;5114693;28;20582;-68
2022/01/02 06:44:23;;;;;;;44.40;25.08;;;;;;;;;;5114723;28;20433;-69
2022/01/02 06:46:49;;;;;;;57.67;31.98;;;;;;;;;;5114535;28;20055;-67
2022/01/02 06:49:15;;;;;;;56.00;30.52;;;;;;;;;;5096367;28;20063;-68
2022/01/02 06:51:41;;;;;;;60.58;34.65;;;;;;;;;;5114475;28;20059;-70
2022/01/02 06:54:07;;;;;;;66.25;36.38;;;;;;;;;;5095439;28;20114;-69
2022/01/02 06:56:33;;;;;;;60.25;34.25;;;;;;;;;;5114486;28;20453;-69
2022/01/02 06:59:00;;;;;;;46.80;28.67;;;;;;;;;;5113899;28;20038;-68
2022/01/02 07:01:26;;;;;;;47.92;28.50;;;;;;;;;;5113789;28;20057;-68
2022/01/02 07:03:52;;;;;;;52.33;30.52;;;;;;;;;;5113787;28;20023;-66
2022/01/02 07:06:18;;;;;;;60.33;32.90;;;;;;;;;;5095973;28;20043;-68
2022/01/02 07:08:44;;;;;;;75.95;39.10;;;;;;;;;;5095692;28;20042;-67
2022/01/02 07:11:11;;;;;;;79.15;38.67;;;;;;;;;;5114292;28;20072;-69
2022/01/02 07:13:40;;;;;;;70.07;36.70;;;;;;;;;;5114222;28;20032;-69
2022/01/02 07:16:06;;;;;;;65.78;36.75;;;;;;;;;;5111545;28;20464;-71
2022/01/02 07:18:32;;;;;;;64.57;36.45;;;;;;;;;;5095509;28;20062;-68
2022/01/02 07:20:58;;;;;;;63.72;37.42;;;;;;;;;;5113994;28;20055;-67
2022/01/02 07:23:25;;;;;;;72.82;42.88;;;;;;;;;;5095731;28;20036;-68
2022/01/02 07:25:51;;;;;;;74.10;41.10;;;;;;;;;;5113933;28;20114;-69
2022/01/02 07:28:17;;;;;;;82.03;42.22;;;;;;;;;;5114212;28;20107;-69
2022/01/02 07:30:43;;;;;;;95.82;54.55;;;;;;;;;;5113910;28;20020;-69
2022/01/02 07:33:09;;;;;;;112.90;66.97;;;;;;;;;;5095625;28;20388;-68
2022/01/02 07:35:35;;;;;;;122.45;66.95;;;;;;;;;;5114101;28;20050;-68
2022/01/02 07:38:02;;;;;;;116.22;66.50;;;;;;;;;;5095514;28;20063;-69
2022/01/02 07:40:28;;;;;;;127.88;74.53;;;;;;;;;;5095506;28;20456;-69
2022/01/02 07:42:54;;;;;;;142.38;83.72;;;;;;;;;;5113720;28;20148;-69
2022/01/02 07:45:21;;;;;;;169.23;99.68;;;;;;;;;;5095376;28;20034;-70
2022/01/02 07:47:48;;;;;;;149.50;88.97;;;;;;;;;;5094974;28;20043;-71
2022/01/02 07:50:14;;;;;;;159.13;97.00;;;;;;;;;;5113370;28;20380;-71
2022/01/02 07:52:40;;;;;;;161.52;97.35;;;;;;;;;;5112554;28;20484;-73
2022/01/02 07:55:07;;;;;;;133.48;79.20;;;;;;;;;;5113613;28;20470;-71
2022/01/02 07:57:33;;;;;;;127.78;75.90;;;;;;;;;;5113526;28;20028;-70
2022/01/02 07:59:59;;;;;;;159.73;97.97;;;;;;;;;;5113589;28;20039;-71
2022/01/02 08:02:25;;;;;;;145.18;84.65;;;;;;;;;;5095292;28;20047;-68
2022/01/02 08:04:51;;;;;;;147.05;82.35;;;;;;;;;;5113367;28;20026;-68
2022/01/02 08:07:18;;;;;;;145.35;85.88;;;;;;;;;;5095216;28;20058;-68
2022/01/02 08:09:44;;;;;;;125.03;76.45;;;;;;;;;;5095095;28;20122;-67
2022/01/02 08:12:10;;;;;;;120.70;71.13;;;;;;;;;;5113785;28;20066;-67
2022/01/02 08:14:36;;;;;;;106.07;63.85;;;;;;;;;;5112832;28;20117;-70
2022/01/02 08:17:03;;;;;;;92.78;54.72;;;;;;;;;;5113329;28;20098;-69
2022/01/02 08:19:29;;;;;;;96.15;59.30;;;;;;;;;;5094735;28;20144;-68
2022/01/02 08:21:55;;;;;;;94.32;57.58;;;;;;;;;;5113081;28;20106;-68
2022/01/02 08:24:21;;;;;;;103.80;60.47;;;;;;;;;;5113310;28;20114;-70
2022/01/02 08:26:48;;;;;;;108.03;65.22;;;;;;;;;;5113005;28;20026;-67
2022/01/02 08:29:14;;;;;;;104.93;60.95;;;;;;;;;;5094977;28;20465;-69
2022/01/02 08:31:40;;;;;;;109.30;63.13;;;;;;;;;;5113292;28;20107;-71
2022/01/02 08:34:07;;;;;;;111.22;69.40;;;;;;;;;;5113273;28;20020;-70
2022/01/02 08:36:33;;;;;;;112.82;67.22;;;;;;;;;;5113191;28;20022;-70
2022/01/02 08:38:59;;;;;;;112.97;70.72;;;;;;;;;;5113256;28;20042;-70
2022/01/02 08:41:25;;;;;;;117.82;71.53;;;;;;;;;;5094915;28;20028;-71
2022/01/02 08:43:52;;;;;;;118.80;72.47;;;;;;;;;;5113168;28;20028;-69
2022/01/02 08:46:18;;;;;;;122.57;71.57;;;;;;;;;;5113062;28;20035;-69
2022/01/02 08:48:44;;;;;;;113.25;67.43;;;;;;;;;;5113104;28;20035;-69
2022/01/02 08:51:12;;;;;;;110.45;65.30;;;;;;;;;;5094746;28;20114;-71
2022/01/02 08:53:38;;;;;;;98.85;57.42;;;;;;;;;;5113057;28;20030;-70
2022/01/02 08:56:04;;;;;;;95.57;53.85;;;;;;;;;;5113059;28;20020;-71
2022/01/02 08:58:31;;;;;;;80.32;46.15;;;;;;;;;;5112990;28;20023;-70
2022/01/02 09:00:57;;;;;;;84.25;47.72;;;;;;;;;;5113130;28;20020;-70
2022/01/02 09:03:24;;;;;;;87.75;51.33;;;;;;;;;;5094715;28;20073;-69
2022/01/02 09:05:50;;;;;;;86.20;50.50;;;;;;;;;;5112955;28;20026;-69
2022/01/02 09:08:16;;;;;;;97.68;56.15;;;;;;;;;;5094516;28;20024;-70
2022/01/02 09:10:42;;;;;;;100.45;59.35;;;;;;;;;;5112605;28;20075;-70
2022/01/02 09:13:08;;;;;;;99.30;57.90;;;;;;;;;;5094650;28;20383;-70
2022/01/02 09:15:35;;;;;;;96.25;56.72;;;;;;;;;;5113206;28;20420;-69
2022/01/02 09:18:01;;;;;;;87.82;53.75;;;;;;;;;;5116578;28;20031;-70
2022/01/02 09:20:28;;;;;;;90.20;52.90;;;;;;;;;;5116130;28;20480;-69
2022/01/02 09:22:55;;;;;;;70.93;43.53;;;;;;;;;;5097940;28;20106;-70
2022/01/02 09:25:21;;;;;;;63.83;36.78;;;;;;;;;;5098071;28;20030;-70
2022/01/02 09:27:47;;;;;;;59.95;34.50;;;;;;;;;;5116386;28;20456;-70
2022/01/02 09:30:13;;;;;;;59.47;34.42;;;;;;;;;;5116337;28;20118;-72
2022/01/02 09:32:41;;;;;;;46.55;27.88;;;;;;;;;;5116316;28;20020;-70
2022/01/02 09:35:08;;;;;;;50.72;29.85;;;;;;;;;;5116041;28;20024;-69
2022/01/02 09:37:34;;;;;;;56.97;29.20;;;;;;;;;;5116193;28;20024;-71
2022/01/02 09:40:01;;;;;;;55.03;30.08;;;;;;;;;;5116233;28;20020;-69
2022/01/02 09:42:28;;;;;;;56.75;32.60;;;;;;;;;;5116066;28;20023;-69
2022/01/02 09:44:54;;;;;;;39.78;23.02;;;;;;;;;;5115714;28;20384;-70
2022/01/02 09:47:22;;;;;;;30.63;17.23;;;;;;;;;;5097641;28;20028;-70
2022/01/02 09:49:48;;;;;;;33.40;20.58;;;;;;;;;;5115915;28;20472;-70
2022/01/02 09:52:15;;;;;;;30.98;19.33;;;;;;;;;;5115931;28;20520;-70
2022/01/02 09:54:41;;;;;;;37.90;21.05;;;;;;;;;;5097247;28;20456;-69
2022/01/02 09:57:08;;;;;;;36.15;21.15;;;;;;;;;;5115403;28;20030;-69
2022/01/02 09:59:34;;;;;;;39.65;23.02;;;;;;;;;;5115798;28;20055;-70
2022/01/02 10:02:01;;;;;;;40.67;22.77;;;;;;;;;;5097375;28;20695;-69
2022/01/02 10:04:33;;;;;;;42.97;25.63;;;;;;;;;;5115339;28;20448;-69
2022/01/02 10:07:00;;;;;;;47.55;28.77;;;;;;;;;;5113972;28;20376;-69
2022/01/02 10:09:30;;;;;;;44.55;27.00;;;;;;;;;;5115152;28;20498;-70
2022/01/02 10:12:15;;;;;;;43.80;26.23;;;;;;;;;;5114829;28;20035;-69
2022/01/02 10:14:41;;;;;;;47.33;28.40;;;;;;;;;;5096687;28;20252;-69
2022/01/02 10:17:07;;;;;;;45.83;27.55;;;14.10;99.90;;;;;;5115501;28;20016;-70
2022/01/02 10:19:38;;;;;;;34.78;20.58;;;14.20;99.90;;;;;;5115086;28;20484;-70
2022/01/02 10:22:05;;;;;;;30.33;18.55;;;;;;;;;;5097068;28;20368;-70
2022/01/02 10:24:33;;;;;;;40.42;24.75;;;;;;;;;;5115325;28;20491;-70
2022/01/02 10:27:03;;;;;;;48.35;28.67;;;;;;;;;;5115241;28;20080;-70
2022/01/02 10:29:39;;;;;;;34.28;20.77;;;;;;;;;;5115213;28;20043;-70
2022/01/02 10:32:23;;;;;;;27.95;17.65;;;;;;;;;;5115127;28;20050;-70
2022/01/02 10:34:50;;;;;;;32.60;19.17;;;;;;;;;;5115031;28;20483;-70
2022/01/02 10:37:24;;;;;;;38.25;21.17;;;14.30;99.90;;;;;;5115029;28;20052;-70
2022/01/02 10:39:50;;;;;;;30.25;19.20;;;17.20;90.10;;;;;;5115004;28;20471;-70
2022/01/02 10:42:18;;;;;;;26.67;17.42;;;17.30;90.00;;;;;;5114855;28;20072;-70
2022/01/02 10:44:44;;;;;;;37.13;22.35;;;;;;;;;;5114875;28;20028;-70
2022/01/02 10:47:13;;;;;;;32.05;17.88;;;;;;;;;;5095524;28;20572;-70
2022/01/02 10:50:11;;;;;;;42.38;28.02;;;17.30;88.40;;;;;;5113273;28;20020;-70
2022/01/02 10:52:41;;;;;;;41.47;23.75;;;18.50;85.70;;;;;;5114765;28;20024;-69
2022/01/02 10:55:20;;;;;;;24.80;15.23;;;18.20;83.00;;;;;;5114671;28;20015;-70
2022/01/02 10:57:52;;;;;;;28.10;14.52;;;18.60;86.00;;;;;;5114760;28;20059;-69
2022/01/02 11:00:19;;;;;;;;;;;19.00;82.20;;;;;;5115134;28;20031;-69
2022/01/02 11:02:46;;;;;;;25.23;15.02;;;;;;;;;;5114583;28;19904;-70
2022/01/02 11:05:13;;;;;;;24.70;15.27;;;;;;;;;;5114709;28;20057;-70
2022/01/02 11:07:43;;;;;;;28.83;16.30;;;;;;;;;;5096001;28;20357;-70
2022/01/02 11:10:10;;;;;;;19.52;10.20;;;;;;;;;;5096036;28;20035;-70
2022/01/02 11:12:37;;;;;;;21.05;11.55;;;;;;;;;;5096013;28;20027;-70
2022/01/02 11:15:03;;;;;;;20.67;12.27;;;;;;;;;;5114226;28;20031;-70
2022/01/02 11:17:30;;;;;;;20.30;10.75;;;;;;;;;;5114034;28;20027;-70
2022/01/02 11:19:56;;;;;;;16.98;10.60;;;;;;;;;;5114266;28;20468;-70
2022/01/02 11:22:26;;;;;;;16.85;11.02;;;;;;;;;;5095684;28;20050;-70
2022/01/02 11:25:01;;;;;;;26.25;12.50;;;;;;;;;;5095697;28;20020;-69
2022/01/02 11:27:47;;;;;;;18.42;10.38;;;18.00;84.70;;;;;;5113890;28;20023;-70
2022/01/02 11:30:33;;;;;;;17.80;10.38;;;;;;;;;;5113971;28;20062;-69
2022/01/02 11:33:01;;;;;;;23.17;13.43;;;;;;;;;;5096367;28;20036;-70
2022/01/02 11:35:31;;;;;;;19.88;12.75;;;15.30;93.40;;;;;;5095301;28;20110;-70
2022/01/02 11:38:01;;;;;;;20.08;13.07;;;15.00;93.90;;;;;;5113813;28;20026;-70
2022/01/02 11:40:49;;;;;;;24.10;12.80;;;14.90;93.80;;;;;;5095350;28;20027;-69
2022/01/02 11:43:34;;;;;;;21.88;11.95;;;;;;;;;;5095469;28;20024;-70
2022/01/02 11:46:19;;;;;;;19.73;11.20;;;;;;;;;;5113757;28;20104;-69
2022/01/02 11:49:04;;;;;;;22.98;12.07;;;;;;;;;;5113674;28;20032;-70
2022/01/02 11:51:48;;;;;;;19.92;10.23;;;;;;;;;;5113695;28;20047;-69
2022/01/02 11:54:30;;;;;;;20.77;10.95;;;14.90;95.30;;;;;;5113580;28;20069;-71
2022/01/02 11:57:05;;;;;;;24.90;11.52;;;14.70;94.80;;;;;;5095220;28;20076;-71
2022/01/02 11:59:43;;;;;;;23.10;11.20;;;14.60;95.30;;;;;;5113841;28;20032;-70
2022/01/02 12:02:26;;;;;;;27.30;12.77;;;14.60;94.90;;;;;;5113591;28;20027;-70
2022/01/02 12:07:35;;;;;;;16.35;9.27;;;15.10;94.40;;;;;;5113201;28;20032;-70
2022/01/02 12:10:16;;;;;;;15.65;8.90;;;14.90;93.70;;;;;;5113413;28;20035;-70
2022/01/02 12:13:00;;;;;;;17.23;10.67;;;14.80;93.90;;;;;;5113451;28;20023;-70
2022/01/02 12:15:34;;;;;;;19.48;10.85;;;14.80;93.90;;;;;;5113443;28;20036;-70
2022/01/02 12:18:23;;;;;;;27.17;12.35;;;14.90;94.80;;;;;;5113282;28;20038;-71
2022/01/02 12:21:00;;;;;;;20.52;9.95;;;14.90;94.50;;;;;;5112954;28;20082;-70
2022/01/02 12:23:34;;;;;;;19.40;9.90;;;14.90;94.10;;;;;;5113409;28;20024;-70
2022/01/02 12:26:09;;;;;;;23.75;12.48;;;14.90;93.90;;;;;;5113211;28;20020;-69
2022/01/02 12:28:40;;;;;;;15.98;10.00;;;14.80;95.00;;;;;;5113296;28;20028;-70
2022/01/02 12:31:08;;;;;;;19.90;10.02;;;;;;;;;;5095296;28;20403;-71
2022/01/02 12:33:35;;;;;;;15.10;9.00;;;15.10;94.20;;;;;;5112945;28;20024;-70
2022/01/02 12:36:16;;;;;;;18.27;10.07;;;15.10;93.30;;;;;;5113120;28;20024;-70
2022/01/02 12:38:48;;;;;;;15.13;8.18;;;15.00;93.60;;;;;;5113523;28;20376;-70
2022/01/02 12:41:17;;;;;;;14.93;8.88;;;14.90;94.00;;;;;;5113305;28;20372;-71
2022/01/02 12:44:06;;;;;;;19.65;9.45;;;14.80;94.80;;;;;;5113189;28;20456;-71
2022/01/02 12:46:44;;;;;;;23.05;10.52;;;14.90;95.10;;;;;;5094845;28;20380;-70
2022/01/02 12:49:14;;;;;;;19.40;10.38;;;15.10;93.50;;;;;;5113104;28;20039;-69
2022/01/02 12:51:44;;;;;;;25.95;11.18;;;14.90;93.70;;;;;;5115326;28;20032;-71
2022/01/02 12:54:13;;;;;;;18.35;10.50;;;14.90;93.70;;;;;;5116939;28;20081;-71
2022/01/02 12:56:48;;;;;;;18.27;11.32;;;14.90;94.00;;;;;;5116988;28;20080;-71
2022/01/02 12:59:30;;;;;;;18.92;10.20;;;14.90;94.30;;;;;;5098689;28;20032;-70
2022/01/02 13:02:19;;;;;;;11.07;6.43;;;14.80;94.70;;;;;;5117005;28;20058;-70
2022/01/02 13:04:49;;;;;;;19.88;10.13;;;;;;;;;;5116902;28;20031;-71
2022/01/02 13:07:18;;;;;;;21.55;11.05;;;;;;;;;;5117336;28;20023;-70
2022/01/02 13:09:46;;;;;;;11.82;7.35;;;14.70;94.60;;;;;;5116758;28;20110;-71
2022/01/02 13:12:14;;;;;;;11.73;6.88;;;;;;;;;;5116729;28;20034;-70
2022/01/02 13:15:00;;;;;;;12.20;6.90;;;;;;;;;;5116650;28;20487;-71
2022/01/02 13:17:40;;;;;;;15.40;7.45;;;14.80;94.60;;;;;;5098224;28;20035;-71
2022/01/02 13:20:15;;;;;;;14.40;7.45;;;15.30;95.60;;;;;;5116150;28;20052;-68
2022/01/02 13:22:50;;;;;;;15.10;7.65;;;15.00;96.00;;;;;;5116302;28;20031;-70
2022/01/02 13:25:29;;;;;;;13.38;8.68;;;14.90;96.70;;;;;;5116406;28;20024;-69
2022/01/02 13:27:59;;;;;;;17.17;9.75;;;14.80;98.40;;;;;;5116440;28;20030;-69
2022/01/02 13:30:28;;;;;;;16.83;10.45;;;15.20;97.70;;;;;;5116136;28;20035;-68
2022/01/02 13:32:55;;;;;;;17.65;9.90;;;15.30;96.70;;;;;;5116122;28;20027;-69
2022/01/02 13:35:25;;;;;;;23.45;11.65;;;15.30;96.60;;;;;;5115915;28;20380;-71
2022/01/02 13:38:04;;;;;;;20.80;11.27;;;15.20;97.30;;;;;;5116302;28;20024;-69
2022/01/02 13:40:32;;;;;;;19.63;11.45;;;15.10;97.10;;;;;;5098041;28;20031;-69
2022/01/02 13:43:16;;;;;;;20.13;11.43;;;15.00;97.20;;;;;;5116061;28;20085;-70
2022/01/02 13:45:43;;;;;;;21.30;12.30;;;15.00;97.30;;;;;;5116052;28;20027;-69
2022/01/02 13:48:21;;;;;;;17.35;10.90;;;15.00;97.40;;;;;;5097642;28;20384;-70
2022/01/02 13:50:58;;;;;;;21.05;11.77;;;15.00;97.10;;;;;;5097556;28;20464;-68
2022/01/02 13:53:32;;;;;;;16.88;10.13;;;14.90;97.70;;;;;;5097943;28;20365;-71
2022/01/02 13:56:04;;;;;;;20.30;11.80;;;14.80;97.80;;;;;;5115902;28;20019;-70
2022/01/02 13:58:41;;;;;;;19.90;13.38;;;15.30;96.70;;;;;;5115737;28;20176;-71
2022/01/02 14:01:16;;;;;;;22.10;15.27;;;15.30;96.00;;;;;;5115794;28;20031;-71
2022/01/02 14:03:42;;;;;;;23.63;15.50;;;15.60;95.70;;;;;;5115646;28;20028;-71
2022/01/02 14:06:14;;;;;;;22.85;14.38;;;15.40;95.40;;;;;;5115384;28;20030;-71
2022/01/02 14:08:40;;;;;;;;;;;;;;;;;;5097693;28;20073;-68
2022/01/02 14:11:14;;;;;;;22.58;13.77;;;15.40;95.80;;;;;;5115931;28;19929;-71